sensor_id;sensor_type;location;lat;lon;timestamp;noise_LAeq;noise_LA_min;noise_LA_max;noise_LA01;noise_LA95
43385;Laerm;28988;48.042;7.584;2023-03-01T00:01:06;90.14;-42.24;98.60;;
43385;Laerm;28988;48.042;7.584;2023-03-01T00:03:32;90.14;-42.24;98.60;;
43385;Laerm;28988;48.042;7.584;2023-03-01T00:05:57;90.14;-37.56;98.60;;
43385;Laerm;28988;48.042;7.584;2023-03-01T00:08:25;90.14;-37.56;98.60;;
43385;Laerm;28988;48.042;7.584;2023-03-01T00:10:59;90.14;-37.56;98.60;;
43385;Laerm;28988;48.042;7.584;2023-03-01T00:13:24;90.14;-37.56;98.60;;
43385;Laerm;28988;48.042;7.584;2023-03-01T00:15:51;90.15;-37.56;98.60;;
43385;Laerm;28988;48.042;7.584;2023-03-01T00:18:16;90.14;-42.24;98.60;;
43385;Laerm;28988;48.042;7.584;2023-03-01T00:20:41;90.14;-37.56;98.60;;
43385;Laerm;28988;48.042;7.584;2023-03-01T00:23:06;90.14;-37.56;98.60;;
43385;Laerm;28988;48.042;7.584;2023-03-01T00:25:32;90.14;-37.56;98.60;;
43385;Laerm;28988;48.042;7.584;2023-03-01T00:27:57;90.14;-37.56;98.60;;
43385;Laerm;28988;48.042;7.584;2023-03-01T00:30:22;90.14;-37.56;98.60;;
43385;Laerm;28988;48.042;7.584;2023-03-01T00:32:47;90.14;-37.56;98.60;;
43385;Laerm;28988;48.042;7.584;2023-03-01T00:35:13;90.14;-42.24;98.60;;
43385;Laerm;28988;48.042;7.584;2023-03-01T00:37:38;90.14;-42.24;98.60;;
43385;Laerm;28988;48.042;7.584;2023-03-01T00:40:03;90.14;-42.24;98.60;;
43385;Laerm;28988;48.042;7.584;2023-03-01T00:42:31;90.14;-42.24;98.60;;
43385;Laerm;28988;48.042;7.584;2023-03-01T00:44:56;90.14;-37.56;98.60;;
43385;Laerm;28988;48.042;7.584;2023-03-01T00:47:21;90.14;-42.24;98.60;;
43385;Laerm;28988;48.042;7.584;2023-03-01T00:49:47;90.14;-42.24;98.60;;
43385;Laerm;28988;48.042;7.584;2023-03-01T00:52:12;90.14;-42.24;98.60;;
43385;Laerm;28988;48.042;7.584;2023-03-01T00:54:37;90.14;-37.56;98.60;;
43385;Laerm;28988;48.042;7.584;2023-03-01T00:57:02;90.14;-42.24;98.60;;
43385;Laerm;28988;48.042;7.584;2023-03-01T00:59:27;90.14;-42.24;98.60;;
43385;Laerm;28988;48.042;7.584;2023-03-01T01:01:53;90.14;-37.56;98.60;;
43385;Laerm;28988;48.042;7.584;2023-03-01T01:04:18;90.14;-37.56;98.60;;
43385;Laerm;28988;48.042;7.584;2023-03-01T01:06:44;90.14;-42.24;98.60;;
43385;Laerm;28988;48.042;7.584;2023-03-01T01:09:11;90.14;-21.54;98.60;;
43385;Laerm;28988;48.042;7.584;2023-03-01T01:11:42;90.14;-42.24;98.60;;
43385;Laerm;28988;48.042;7.584;2023-03-01T01:14:07;90.14;-42.24;98.60;;
43385;Laerm;28988;48.042;7.584;2023-03-01T01:16:32;90.14;-42.24;98.60;;
43385;Laerm;28988;48.042;7.584;2023-03-01T01:18:58;90.14;-42.24;98.60;;
43385;Laerm;28988;48.042;7.584;2023-03-01T01:21:23;90.14;-42.24;98.60;;
43385;Laerm;28988;48.042;7.584;2023-03-01T01:23:49;90.14;-37.56;98.60;;
43385;Laerm;28988;48.042;7.584;2023-03-01T01:26:19;90.14;-36.41;98.60;;
43385;Laerm;28988;48.042;7.584;2023-03-01T01:28:45;90.14;-42.24;98.60;;
43385;Laerm;28988;48.042;7.584;2023-03-01T01:31:11;90.15;-37.56;98.60;;
43385;Laerm;28988;48.042;7.584;2023-03-01T01:33:36;90.14;-36.41;98.60;;
43385;Laerm;28988;48.042;7.584;2023-03-01T01:36:02;90.14;-42.24;98.60;;
43385;Laerm;28988;48.042;7.584;2023-03-01T01:38:28;90.14;-36.41;98.60;;
43385;Laerm;28988;48.042;7.584;2023-03-01T01:40:53;90.14;-42.24;98.60;;
43385;Laerm;28988;48.042;7.584;2023-03-01T01:43:22;90.14;-42.24;98.60;;
43385;Laerm;28988;48.042;7.584;2023-03-01T01:45:48;90.14;-42.24;98.60;;
43385;Laerm;28988;48.042;7.584;2023-03-01T01:48:16;90.15;-42.24;98.60;;
43385;Laerm;28988;48.042;7.584;2023-03-01T01:50:42;90.14;-37.56;98.60;;
43385;Laerm;28988;48.042;7.584;2023-03-01T01:53:10;90.14;-37.56;98.60;;
43385;Laerm;28988;48.042;7.584;2023-03-01T01:55:39;90.14;-42.24;98.60;;
43385;Laerm;28988;48.042;7.584;2023-03-01T01:58:05;90.14;-42.24;98.60;;
43385;Laerm;28988;48.042;7.584;2023-03-01T02:00:33;90.14;-42.24;98.60;;
43385;Laerm;28988;48.042;7.584;2023-03-01T02:03:03;90.14;-37.56;98.60;;
43385;Laerm;28988;48.042;7.584;2023-03-01T02:05:42;90.14;-36.41;98.60;;
43385;Laerm;28988;48.042;7.584;2023-03-01T02:08:10;90.14;-42.24;98.60;;
43385;Laerm;28988;48.042;7.584;2023-03-01T02:10:36;90.15;-42.24;98.60;;
43385;Laerm;28988;48.042;7.584;2023-03-01T02:13:03;90.14;-36.41;98.60;;
43385;Laerm;28988;48.042;7.584;2023-03-01T02:15:31;90.14;-37.56;98.60;;
43385;Laerm;28988;48.042;7.584;2023-03-01T02:17:56;90.14;-42.24;98.60;;
43385;Laerm;28988;48.042;7.584;2023-03-01T02:23:07;90.14;-42.24;98.60;;
43385;Laerm;28988;48.042;7.584;2023-03-01T02:25:34;90.14;-42.24;98.60;;
43385;Laerm;28988;48.042;7.584;2023-03-01T02:30:35;90.14;-42.24;98.60;;
43385;Laerm;28988;48.042;7.584;2023-03-01T02:33:00;90.14;-37.56;98.60;;
43385;Laerm;28988;48.042;7.584;2023-03-01T02:35:27;90.14;-42.24;98.60;;
43385;Laerm;28988;48.042;7.584;2023-03-01T02:37:54;90.14;-37.56;98.60;;
43385;Laerm;28988;48.042;7.584;2023-03-01T02:40:22;90.15;-42.24;98.60;;
43385;Laerm;28988;48.042;7.584;2023-03-01T02:42:51;90.14;-36.41;98.60;;
43385;Laerm;28988;48.042;7.584;2023-03-01T02:45:19;90.14;-42.24;98.60;;
43385;Laerm;28988;48.042;7.584;2023-03-01T02:47:44;90.14;-42.24;98.60;;
43385;Laerm;28988;48.042;7.584;2023-03-01T02:50:15;90.14;-42.24;98.60;;
43385;Laerm;28988;48.042;7.584;2023-03-01T02:52:52;90.14;-42.24;98.60;;
43385;Laerm;28988;48.042;7.584;2023-03-01T02:55:18;90.14;-37.56;98.60;;
43385;Laerm;28988;48.042;7.584;2023-03-01T02:57:44;90.14;-42.24;98.60;;
43385;Laerm;28988;48.042;7.584;2023-03-01T03:00:14;90.14;-36.41;98.60;;
43385;Laerm;28988;48.042;7.584;2023-03-01T03:02:47;90.14;-37.56;98.60;;
43385;Laerm;28988;48.042;7.584;2023-03-01T03:05:14;90.14;-37.56;98.60;;
43385;Laerm;28988;48.042;7.584;2023-03-01T03:07:41;90.14;-36.41;98.60;;
43385;Laerm;28988;48.042;7.584;2023-03-01T03:10:09;90.15;-42.24;98.60;;
43385;Laerm;28988;48.042;7.584;2023-03-01T03:12:36;90.13;-21.54;98.60;;
43385;Laerm;28988;48.042;7.584;2023-03-01T03:15:01;90.14;-37.56;98.60;;
43385;Laerm;28988;48.042;7.584;2023-03-01T03:17:26;90.15;-37.56;98.60;;
43385;Laerm;28988;48.042;7.584;2023-03-01T03:19:51;90.14;-42.24;98.60;;
43385;Laerm;28988;48.042;7.584;2023-03-01T03:22:17;90.15;-42.24;98.60;;
43385;Laerm;28988;48.042;7.584;2023-03-01T03:24:42;90.14;-42.24;98.60;;
43385;Laerm;28988;48.042;7.584;2023-03-01T03:27:07;90.13;-42.24;98.60;;
43385;Laerm;28988;48.042;7.584;2023-03-01T03:29:33;90.14;-42.24;98.60;;
43385;Laerm;28988;48.042;7.584;2023-03-01T03:31:58;90.14;-36.41;98.60;;
43385;Laerm;28988;48.042;7.584;2023-03-01T03:34:23;90.14;-42.24;98.60;;
43385;Laerm;28988;48.042;7.584;2023-03-01T03:36:53;90.14;-42.24;98.60;;
43385;Laerm;28988;48.042;7.584;2023-03-01T03:39:21;90.14;-37.56;98.60;;
43385;Laerm;28988;48.042;7.584;2023-03-01T03:41:46;90.14;-36.41;98.60;;
43385;Laerm;28988;48.042;7.584;2023-03-01T03:44:12;90.14;-42.24;98.60;;
43385;Laerm;28988;48.042;7.584;2023-03-01T03:46:38;90.14;-37.56;98.60;;
43385;Laerm;28988;48.042;7.584;2023-03-01T03:49:03;90.14;-37.56;98.60;;
43385;Laerm;28988;48.042;7.584;2023-03-01T03:51:28;90.14;-42.24;98.60;;
43385;Laerm;28988;48.042;7.584;2023-03-01T03:53:54;90.14;-42.24;98.60;;
43385;Laerm;28988;48.042;7.584;2023-03-01T03:56:19;90.14;-42.24;98.60;;
43385;Laerm;28988;48.042;7.584;2023-03-01T03:58:48;90.14;-37.56;98.60;;
43385;Laerm;28988;48.042;7.584;2023-03-01T04:01:13;90.14;-42.24;98.60;;
43385;Laerm;28988;48.042;7.584;2023-03-01T04:03:38;90.14;-42.24;98.60;;
43385;Laerm;28988;48.042;7.584;2023-03-01T04:06:03;90.14;-42.24;98.60;;
43385;Laerm;28988;48.042;7.584;2023-03-01T04:08:30;90.14;-21.54;98.60;;
43385;Laerm;28988;48.042;7.584;2023-03-01T04:10:59;90.13;-42.24;98.60;;
43385;Laerm;28988;48.042;7.584;2023-03-01T04:13:25;90.14;-42.24;98.60;;
43385;Laerm;28988;48.042;7.584;2023-03-01T04:15:51;90.14;-42.24;98.60;;
43385;Laerm;28988;48.042;7.584;2023-03-01T04:18:18;90.14;-36.41;98.60;;
43385;Laerm;28988;48.042;7.584;2023-03-01T04:20:44;90.15;-21.54;98.60;;
43385;Laerm;28988;48.042;7.584;2023-03-01T04:23:15;90.14;-37.56;98.60;;
43385;Laerm;28988;48.042;7.584;2023-03-01T04:25:58;90.14;-42.24;98.60;;
43385;Laerm;28988;48.042;7.584;2023-03-01T04:28:25;90.14;-42.24;98.60;;
43385;Laerm;28988;48.042;7.584;2023-03-01T04:30:51;90.14;-37.56;98.60;;
43385;Laerm;28988;48.042;7.584;2023-03-01T04:33:17;90.14;-42.24;98.60;;
43385;Laerm;28988;48.042;7.584;2023-03-01T04:35:42;90.14;-37.56;98.60;;
43385;Laerm;28988;48.042;7.584;2023-03-01T04:38:07;90.14;-36.41;98.60;;
43385;Laerm;28988;48.042;7.584;2023-03-01T04:40:33;90.14;-42.24;98.60;;
43385;Laerm;28988;48.042;7.584;2023-03-01T04:42:58;90.14;-42.24;98.60;;
43385;Laerm;28988;48.042;7.584;2023-03-01T04:45:23;90.14;-42.24;98.60;;
43385;Laerm;28988;48.042;7.584;2023-03-01T04:47:49;90.15;-42.24;98.60;;
43385;Laerm;28988;48.042;7.584;2023-03-01T04:50:15;90.14;-42.24;98.60;;
43385;Laerm;28988;48.042;7.584;2023-03-01T04:52:43;90.13;-37.56;98.60;;
43385;Laerm;28988;48.042;7.584;2023-03-01T04:55:08;90.14;-42.24;98.60;;
43385;Laerm;28988;48.042;7.584;2023-03-01T04:57:34;90.15;-42.24;98.60;;
43385;Laerm;28988;48.042;7.584;2023-03-01T04:59:59;90.14;-42.24;98.60;;
43385;Laerm;28988;48.042;7.584;2023-03-01T05:02:24;90.15;-42.24;98.60;;
43385;Laerm;28988;48.042;7.584;2023-03-01T05:04:50;90.13;-37.56;98.60;;
43385;Laerm;28988;48.042;7.584;2023-03-01T05:07:15;90.14;-42.24;98.60;;
43385;Laerm;28988;48.042;7.584;2023-03-01T05:09:46;90.14;-37.56;98.60;;
43385;Laerm;28988;48.042;7.584;2023-03-01T05:12:12;90.14;-42.24;98.60;;
43385;Laerm;28988;48.042;7.584;2023-03-01T05:14:37;90.15;-37.56;98.60;;
43385;Laerm;28988;48.042;7.584;2023-03-01T05:17:03;90.14;-42.24;98.60;;
43385;Laerm;28988;48.042;7.584;2023-03-01T05:19:29;90.14;-37.56;98.60;;
43385;Laerm;28988;48.042;7.584;2023-03-01T05:21:55;90.14;-37.56;98.60;;
43385;Laerm;28988;48.042;7.584;2023-03-01T05:24:27;90.14;-42.24;98.60;;
43385;Laerm;28988;48.042;7.584;2023-03-01T05:26:52;90.14;-21.54;98.60;;
43385;Laerm;28988;48.042;7.584;2023-03-01T05:29:19;90.15;-37.56;98.60;;
43385;Laerm;28988;48.042;7.584;2023-03-01T05:31:50;90.14;-42.24;98.60;;
43385;Laerm;28988;48.042;7.584;2023-03-01T05:34:15;90.14;-42.24;98.60;;
43385;Laerm;28988;48.042;7.584;2023-03-01T05:36:40;90.14;-42.24;98.60;;
43385;Laerm;28988;48.042;7.584;2023-03-01T05:39:05;90.14;-21.54;98.60;;
43385;Laerm;28988;48.042;7.584;2023-03-01T05:41:30;90.14;-42.24;98.60;;
43385;Laerm;28988;48.042;7.584;2023-03-01T05:43:56;90.14;-42.24;98.60;;
43385;Laerm;28988;48.042;7.584;2023-03-01T05:46:21;90.14;-36.41;98.60;;
43385;Laerm;28988;48.042;7.584;2023-03-01T05:48:49;90.14;-42.24;98.60;;
43385;Laerm;28988;48.042;7.584;2023-03-01T05:51:14;90.14;-42.24;98.60;;
43385;Laerm;28988;48.042;7.584;2023-03-01T05:53:39;90.14;-37.56;98.60;;
43385;Laerm;28988;48.042;7.584;2023-03-01T05:56:04;90.14;-21.54;98.60;;
43385;Laerm;28988;48.042;7.584;2023-03-01T05:58:31;90.14;-36.41;98.60;;
43385;Laerm;28988;48.042;7.584;2023-03-01T06:00:56;90.14;-37.56;98.60;;
43385;Laerm;28988;48.042;7.584;2023-03-01T06:03:21;90.14;-37.56;98.60;;
43385;Laerm;28988;48.042;7.584;2023-03-01T06:05:46;90.14;-42.24;98.60;;
43385;Laerm;28988;48.042;7.584;2023-03-01T06:08:12;90.14;-42.24;98.60;;
43385;Laerm;28988;48.042;7.584;2023-03-01T06:10:37;90.14;-42.24;98.60;;
43385;Laerm;28988;48.042;7.584;2023-03-01T06:13:02;90.14;-42.24;98.60;;
43385;Laerm;28988;48.042;7.584;2023-03-01T06:15:28;90.14;-42.24;98.60;;
43385;Laerm;28988;48.042;7.584;2023-03-01T06:17:54;90.14;-37.56;98.60;;
43385;Laerm;28988;48.042;7.584;2023-03-01T06:20:22;90.14;-42.24;98.60;;
43385;Laerm;28988;48.042;7.584;2023-03-01T06:22:48;90.14;-42.24;98.60;;
43385;Laerm;28988;48.042;7.584;2023-03-01T06:25:14;90.14;-37.56;98.60;;
43385;Laerm;28988;48.042;7.584;2023-03-01T06:27:41;90.14;-37.56;98.60;;
43385;Laerm;28988;48.042;7.584;2023-03-01T06:30:07;90.14;-36.41;98.60;;
43385;Laerm;28988;48.042;7.584;2023-03-01T06:32:34;90.14;-42.24;98.60;;
43385;Laerm;28988;48.042;7.584;2023-03-01T06:35:00;90.14;-37.56;98.67;;
43385;Laerm;28988;48.042;7.584;2023-03-01T06:37:25;90.14;-42.24;98.60;;
43385;Laerm;28988;48.042;7.584;2023-03-01T06:39:50;90.14;-36.41;98.60;;
43385;Laerm;28988;48.042;7.584;2023-03-01T06:42:15;90.14;-42.24;98.60;;
43385;Laerm;28988;48.042;7.584;2023-03-01T06:44:41;90.14;-37.56;98.60;;
43385;Laerm;28988;48.042;7.584;2023-03-01T06:47:06;90.14;-37.56;98.60;;
43385;Laerm;28988;48.042;7.584;2023-03-01T06:49:32;90.14;-42.24;98.60;;
43385;Laerm;28988;48.042;7.584;2023-03-01T06:51:57;90.14;-36.41;98.60;;
43385;Laerm;28988;48.042;7.584;2023-03-01T06:54:22;90.14;-42.24;98.60;;
43385;Laerm;28988;48.042;7.584;2023-03-01T06:56:48;90.15;-37.56;98.60;;
43385;Laerm;28988;48.042;7.584;2023-03-01T06:59:14;90.14;-42.24;98.60;;
43385;Laerm;28988;48.042;7.584;2023-03-01T07:01:39;90.14;-36.41;98.60;;
43385;Laerm;28988;48.042;7.584;2023-03-01T07:04:04;90.14;-37.56;98.60;;
43385;Laerm;28988;48.042;7.584;2023-03-01T07:06:30;90.14;-37.56;98.60;;
43385;Laerm;28988;48.042;7.584;2023-03-01T07:08:55;90.14;-37.56;98.60;;
43385;Laerm;28988;48.042;7.584;2023-03-01T07:11:20;90.14;-37.56;98.60;;
43385;Laerm;28988;48.042;7.584;2023-03-01T07:13:45;90.14;-42.24;98.60;;
43385;Laerm;28988;48.042;7.584;2023-03-01T07:16:11;90.14;-36.41;98.60;;
43385;Laerm;28988;48.042;7.584;2023-03-01T07:18:36;90.14;-42.24;98.60;;
43385;Laerm;28988;48.042;7.584;2023-03-01T07:21:08;90.14;-37.56;98.60;;
43385;Laerm;28988;48.042;7.584;2023-03-01T07:23:34;90.14;-42.24;98.60;;
43385;Laerm;28988;48.042;7.584;2023-03-01T07:25:59;90.14;-37.56;98.60;;
43385;Laerm;28988;48.042;7.584;2023-03-01T07:28:25;90.15;-42.24;98.60;;
43385;Laerm;28988;48.042;7.584;2023-03-01T07:30:50;90.14;-42.24;98.60;;
43385;Laerm;28988;48.042;7.584;2023-03-01T07:33:16;90.14;-37.56;98.60;;
43385;Laerm;28988;48.042;7.584;2023-03-01T07:35:41;90.14;-42.24;98.60;;
43385;Laerm;28988;48.042;7.584;2023-03-01T07:38:07;90.13;-42.24;98.60;;
43385;Laerm;28988;48.042;7.584;2023-03-01T07:40:32;90.14;-42.24;98.60;;
43385;Laerm;28988;48.042;7.584;2023-03-01T07:42:58;90.14;-42.24;98.60;;
43385;Laerm;28988;48.042;7.584;2023-03-01T07:45:23;90.14;-42.24;98.60;;
43385;Laerm;28988;48.042;7.584;2023-03-01T07:47:50;90.13;-37.56;98.60;;
43385;Laerm;28988;48.042;7.584;2023-03-01T07:50:15;90.14;-36.41;98.60;;
43385;Laerm;28988;48.042;7.584;2023-03-01T07:52:40;90.14;-21.54;98.60;;
43385;Laerm;28988;48.042;7.584;2023-03-01T07:55:06;90.14;-14.85;98.60;;
43385;Laerm;28988;48.042;7.584;2023-03-01T07:57:31;90.13;-36.41;98.60;;
43385;Laerm;28988;48.042;7.584;2023-03-01T07:59:57;90.14;-37.56;98.60;;
43385;Laerm;28988;48.042;7.584;2023-03-01T08:02:22;90.14;-42.24;98.60;;
43385;Laerm;28988;48.042;7.584;2023-03-01T08:04:47;90.14;-37.56;98.60;;
43385;Laerm;28988;48.042;7.584;2023-03-01T08:07:12;90.14;-42.24;98.60;;
43385;Laerm;28988;48.042;7.584;2023-03-01T08:09:38;90.14;-42.24;98.60;;
43385;Laerm;28988;48.042;7.584;2023-03-01T08:12:03;90.14;-36.41;98.60;;
43385;Laerm;28988;48.042;7.584;2023-03-01T08:14:29;90.14;-37.56;98.60;;
43385;Laerm;28988;48.042;7.584;2023-03-01T08:16:54;90.14;-42.24;98.60;;
43385;Laerm;28988;48.042;7.584;2023-03-01T08:19:20;90.14;-37.56;98.60;;
43385;Laerm;28988;48.042;7.584;2023-03-01T08:21:45;90.14;-37.56;98.60;;
43385;Laerm;28988;48.042;7.584;2023-03-01T08:24:10;90.14;-36.41;98.60;;
43385;Laerm;28988;48.042;7.584;2023-03-01T08:26:36;90.14;-42.24;98.60;;
43385;Laerm;28988;48.042;7.584;2023-03-01T08:29:02;90.14;-42.24;98.60;;
43385;Laerm;28988;48.042;7.584;2023-03-01T08:31:28;90.14;-42.24;98.60;;
43385;Laerm;28988;48.042;7.584;2023-03-01T08:33:56;90.14;-42.24;98.60;;
43385;Laerm;28988;48.042;7.584;2023-03-01T08:36:22;90.14;-36.41;98.60;;
43385;Laerm;28988;48.042;7.584;2023-03-01T08:38:48;90.14;-37.56;98.60;;
43385;Laerm;28988;48.042;7.584;2023-03-01T08:41:13;90.14;-42.24;98.60;;
43385;Laerm;28988;48.042;7.584;2023-03-01T08:43:39;90.14;-42.24;98.60;;
43385;Laerm;28988;48.042;7.584;2023-03-01T08:46:04;90.14;-42.24;98.60;;
43385;Laerm;28988;48.042;7.584;2023-03-01T08:48:29;90.14;-36.41;98.60;;
43385;Laerm;28988;48.042;7.584;2023-03-01T08:50:55;90.14;-42.24;98.60;;
43385;Laerm;28988;48.042;7.584;2023-03-01T08:53:21;90.14;-42.24;98.60;;
43385;Laerm;28988;48.042;7.584;2023-03-01T08:55:47;90.14;-42.24;98.60;;
43385;Laerm;28988;48.042;7.584;2023-03-01T08:58:12;90.14;-36.41;98.60;;
43385;Laerm;28988;48.042;7.584;2023-03-01T09:00:37;90.14;-42.24;98.60;;
43385;Laerm;28988;48.042;7.584;2023-03-01T09:03:03;90.14;-37.56;98.60;;
43385;Laerm;28988;48.042;7.584;2023-03-01T09:05:31;90.14;-42.24;98.60;;
43385;Laerm;28988;48.042;7.584;2023-03-01T09:07:56;90.14;-42.24;98.60;;
43385;Laerm;28988;48.042;7.584;2023-03-01T09:10:22;90.14;-37.56;98.60;;
43385;Laerm;28988;48.042;7.584;2023-03-01T09:12:47;90.13;-42.24;98.60;;
43385;Laerm;28988;48.042;7.584;2023-03-01T09:15:12;90.14;-37.56;98.60;;
43385;Laerm;28988;48.042;7.584;2023-03-01T09:17:37;90.13;-16.02;98.60;;
43385;Laerm;28988;48.042;7.584;2023-03-01T09:20:03;90.14;-37.56;98.60;;
43385;Laerm;28988;48.042;7.584;2023-03-01T09:22:30;90.14;-42.24;98.60;;
43385;Laerm;28988;48.042;7.584;2023-03-01T09:24:55;90.14;-42.24;98.60;;
43385;Laerm;28988;48.042;7.584;2023-03-01T09:27:23;90.14;-42.24;98.60;;
43385;Laerm;28988;48.042;7.584;2023-03-01T09:29:49;90.14;-42.24;98.60;;
43385;Laerm;28988;48.042;7.584;2023-03-01T09:32:14;90.14;-42.24;98.60;;
43385;Laerm;28988;48.042;7.584;2023-03-01T09:34:40;90.14;-37.56;98.60;;
43385;Laerm;28988;48.042;7.584;2023-03-01T09:37:23;90.14;-37.56;98.60;;
43385;Laerm;28988;48.042;7.584;2023-03-01T09:39:49;90.14;-42.24;98.60;;
43385;Laerm;28988;48.042;7.584;2023-03-01T09:42:14;90.14;-42.24;98.60;;
43385;Laerm;28988;48.042;7.584;2023-03-01T09:47:19;90.14;-21.54;98.60;;
43385;Laerm;28988;48.042;7.584;2023-03-01T09:49:45;90.13;-42.24;98.60;;
43385;Laerm;28988;48.042;7.584;2023-03-01T09:52:23;90.14;-37.56;98.60;;
43385;Laerm;28988;48.042;7.584;2023-03-01T09:54:52;90.14;-37.56;98.60;;
43385;Laerm;28988;48.042;7.584;2023-03-01T09:57:20;90.14;-21.54;98.60;;
43385;Laerm;28988;48.042;7.584;2023-03-01T10:00:00;90.13;-42.24;98.60;;
43385;Laerm;28988;48.042;7.584;2023-03-01T10:04:55;90.14;-21.54;98.60;;
43385;Laerm;28988;48.042;7.584;2023-03-01T10:07:37;90.14;-42.24;98.60;;
43385;Laerm;28988;48.042;7.584;2023-03-01T10:10:08;90.14;-42.24;98.60;;
43385;Laerm;28988;48.042;7.584;2023-03-01T10:12:41;90.14;-42.24;98.60;;
43385;Laerm;28988;48.042;7.584;2023-03-01T10:15:12;90.14;-16.02;98.60;;
43385;Laerm;28988;48.042;7.584;2023-03-01T10:17:41;90.14;-37.56;98.60;;
43385;Laerm;28988;48.042;7.584;2023-03-01T10:20:22;90.14;-42.24;98.60;;
43385;Laerm;28988;48.042;7.584;2023-03-01T10:22:47;90.14;-42.24;98.60;;
43385;Laerm;28988;48.042;7.584;2023-03-01T10:25:20;90.13;-42.24;98.60;;
43385;Laerm;28988;48.042;7.584;2023-03-01T10:27:51;90.13;-21.54;98.60;;
43385;Laerm;28988;48.042;7.584;2023-03-01T10:30:21;90.14;-42.24;98.60;;
43385;Laerm;28988;48.042;7.584;2023-03-01T10:32:48;90.14;-37.56;98.60;;
43385;Laerm;28988;48.042;7.584;2023-03-01T10:35:21;90.13;-37.56;98.60;;
43385;Laerm;28988;48.042;7.584;2023-03-01T10:40:50;90.13;-21.54;98.60;;
43385;Laerm;28988;48.042;7.584;2023-03-01T10:43:15;90.14;-16.02;98.60;;
43385;Laerm;28988;48.042;7.584;2023-03-01T10:45:40;90.14;-21.54;98.60;;
43385;Laerm;28988;48.042;7.584;2023-03-01T10:48:10;90.13;-21.54;98.60;;
43385;Laerm;28988;48.042;7.584;2023-03-01T10:50:37;90.13;-17.33;98.60;;
43385;Laerm;28988;48.042;7.584;2023-03-01T10:53:04;90.13;-37.56;98.60;;
43385;Laerm;28988;48.042;7.584;2023-03-01T10:55:34;90.14;-16.02;98.60;;
43385;Laerm;28988;48.042;7.584;2023-03-01T10:58:07;90.13;-42.24;98.60;;
43385;Laerm;28988;48.042;7.584;2023-03-01T11:00:33;90.13;-16.02;98.60;;
43385;Laerm;28988;48.042;7.584;2023-03-01T11:03:11;90.14;-17.33;98.60;;
43385;Laerm;28988;48.042;7.584;2023-03-01T11:05:37;90.13;-16.02;98.60;;
43385;Laerm;28988;48.042;7.584;2023-03-01T11:08:14;90.13;-42.24;98.60;;
43385;Laerm;28988;48.042;7.584;2023-03-01T11:10:39;90.13;-42.24;98.60;;
43385;Laerm;28988;48.042;7.584;2023-03-01T11:13:23;90.13;-16.02;98.60;;
43385;Laerm;28988;48.042;7.584;2023-03-01T11:15:58;90.13;-20.53;98.60;;
43385;Laerm;28988;48.042;7.584;2023-03-01T11:18:24;90.13;-20.23;98.66;;
43385;Laerm;28988;48.042;7.584;2023-03-01T11:20:50;90.12;-17.33;98.60;;
43385;Laerm;28988;48.042;7.584;2023-03-01T11:23:17;90.13;-17.33;98.60;;
43385;Laerm;28988;48.042;7.584;2023-03-01T11:25:43;90.13;-20.15;98.60;;
43385;Laerm;28988;48.042;7.584;2023-03-01T11:28:13;90.13;-17.33;98.60;;
43385;Laerm;28988;48.042;7.584;2023-03-01T11:30:41;90.13;-14.85;98.66;;
43385;Laerm;28988;48.042;7.584;2023-03-01T11:35:55;90.13;-19.74;98.71;;
43385;Laerm;28988;48.042;7.584;2023-03-01T11:38:23;90.13;-16.02;98.66;;
43385;Laerm;28988;48.042;7.584;2023-03-01T11:40:51;90.13;-37.56;98.66;;
43385;Laerm;28988;48.042;7.584;2023-03-01T11:45:53;90.13;-14.85;98.60;;
43385;Laerm;28988;48.042;7.584;2023-03-01T11:51:00;90.13;-14.66;98.66;;
43385;Laerm;28988;48.042;7.584;2023-03-01T12:01:07;90.16;-23.98;98.80;;
43385;Laerm;28988;48.042;7.584;2023-03-01T12:11:23;97.80;-34.80;104.94;;
43385;Laerm;28988;48.042;7.584;2023-03-01T12:19:30;97.71;-22.66;105.06;;
43385;Laerm;28988;48.042;7.584;2023-03-01T12:32:41;94.48;-26.17;105.55;;
43385;Laerm;28988;48.042;7.584;2023-03-01T12:37:51;99.96;-24.30;105.49;;
43385;Laerm;28988;48.042;7.584;2023-03-01T12:40:31;100.11;-36.51;105.26;;
43385;Laerm;28988;48.042;7.584;2023-03-01T12:50:51;90.42;-49.58;99.38;;
43385;Laerm;28988;48.042;7.584;2023-03-01T12:53:20;90.44;-50.98;99.10;;
43385;Laerm;28988;48.042;7.584;2023-03-01T12:55:47;90.66;-33.03;99.78;;
43385;Laerm;28988;48.042;7.584;2023-03-01T12:58:37;91.09;-34.40;99.83;;
43385;Laerm;28988;48.042;7.584;2023-03-01T13:03:52;91.08;-29.09;99.90;;
43385;Laerm;28988;48.042;7.584;2023-03-01T13:06:25;90.88;-16.26;99.81;;
43385;Laerm;28988;48.042;7.584;2023-03-01T13:08:56;90.74;-20.23;99.61;;
43385;Laerm;28988;48.042;7.584;2023-03-01T13:11:25;90.60;-50.04;99.72;;
43385;Laerm;28988;48.042;7.584;2023-03-01T13:13:50;90.56;-26.83;99.45;;
43385;Laerm;28988;48.042;7.584;2023-03-01T13:19:11;90.79;-27.94;99.82;;
43385;Laerm;28988;48.042;7.584;2023-03-01T13:21:38;90.62;-30.64;99.74;;
43385;Laerm;28988;48.042;7.584;2023-03-01T13:24:03;90.37;-27.47;99.34;;
43385;Laerm;28988;48.042;7.584;2023-03-01T13:26:29;90.29;-38.58;99.35;;
43385;Laerm;28988;48.042;7.584;2023-03-01T13:28:55;90.25;-19.90;99.30;;
43385;Laerm;28988;48.042;7.584;2023-03-01T13:33:52;90.27;-36.48;99.04;;
43385;Laerm;28988;48.042;7.584;2023-03-01T13:46:37;97.55;-37.68;103.20;;
43385;Laerm;28988;48.042;7.584;2023-03-01T13:49:03;97.43;-76.53;102.77;;
43385;Laerm;28988;48.042;7.584;2023-03-01T13:51:28;96.28;-21.30;102.50;;
43385;Laerm;28988;48.042;7.584;2023-03-01T13:53:53;93.91;-21.43;100.97;;
43385;Laerm;28988;48.042;7.584;2023-03-01T13:56:21;91.52;-31.16;100.27;;
43385;Laerm;28988;48.042;7.584;2023-03-01T14:01:21;90.19;-42.78;99.14;;
43385;Laerm;28988;48.042;7.584;2023-03-01T14:03:47;90.16;-38.67;99.17;;
43385;Laerm;28988;48.042;7.584;2023-03-01T14:06:13;90.15;-16.02;98.81;;
43385;Laerm;28988;48.042;7.584;2023-03-01T14:08:38;90.16;-36.31;99.00;;
43385;Laerm;28988;48.042;7.584;2023-03-01T14:11:13;90.17;-16.46;98.85;;
43385;Laerm;28988;48.042;7.584;2023-03-01T14:13:52;90.17;-25.67;98.81;;
43385;Laerm;28988;48.042;7.584;2023-03-01T14:16:22;90.15;-37.12;99.08;;
43385;Laerm;28988;48.042;7.584;2023-03-01T14:19:03;90.15;-16.02;98.95;;
43385;Laerm;28988;48.042;7.584;2023-03-01T14:21:30;90.13;-21.26;98.90;;
43385;Laerm;28988;48.042;7.584;2023-03-01T14:23:56;90.14;-14.85;98.91;;
43385;Laerm;28988;48.042;7.584;2023-03-01T14:26:22;90.14;-22.78;98.79;;
43385;Laerm;28988;48.042;7.584;2023-03-01T14:28:48;90.14;-14.66;98.81;;
43385;Laerm;28988;48.042;7.584;2023-03-01T14:31:31;90.14;-14.85;98.86;;
43385;Laerm;28988;48.042;7.584;2023-03-01T14:33:57;90.13;-14.66;98.70;;
43385;Laerm;28988;48.042;7.584;2023-03-01T14:36:26;90.14;-12.82;98.66;;
43385;Laerm;28988;48.042;7.584;2023-03-01T14:38:53;90.14;-15.51;98.81;;
43385;Laerm;28988;48.042;7.584;2023-03-01T14:41:20;90.13;-22.63;98.76;;
43385;Laerm;28988;48.042;7.584;2023-03-01T14:44:06;90.14;-17.33;98.76;;
43385;Laerm;28988;48.042;7.584;2023-03-01T14:46:33;90.14;-21.54;98.70;;
43385;Laerm;28988;48.042;7.584;2023-03-01T14:49:02;90.13;-17.33;98.66;;
43385;Laerm;28988;48.042;7.584;2023-03-01T14:51:28;90.13;-15.25;98.71;;
43385;Laerm;28988;48.042;7.584;2023-03-01T14:53:53;90.13;-15.21;98.66;;
43385;Laerm;28988;48.042;7.584;2023-03-01T14:56:19;90.13;-14.85;98.66;;